Sessoms, Georgia
Current Conditions -  °F | °C
As of 1:53 PM on Tuesday 21 Oct 2014 (Local Time) from KAMG Reporting Station
Clear Clear  
Wind Chill: 79°   Ceiling: Unl
Heat Index: 79°   Visibility: 10mi
Dew Point: 51°   Wind: 0mph
Humidity: 38%   Direction: NA
Pressure: 29.95"   Gusts: NA
Location:  31.4253°N, 82.5972°W
Report Text: KAMG 211753Z AUTO 00000KT 10SM CLR 26/11 A2995 RMK AO2 SLP140 T02610106 10261 20122 58019
Loading
Personal Weather Stations






























Interactive Weather Map
Tropical Storm Tracking
New forecast layout! Learn more

10-Day Weather Forecast

Advertisements
Track Severe Weather on mobile